createdAt,value
2023-05-19T00:02:27.290Z,101173.66
2023-05-19T00:04:55.116Z,101160.91
2023-05-19T00:07:28.747Z,101161.63
2023-05-19T00:09:56.340Z,101155.69
2023-05-19T00:12:24.039Z,101150.53
2023-05-19T00:14:51.920Z,101155.50
2023-05-19T00:17:20.271Z,101153.00
2023-05-19T00:19:47.946Z,101151.53
2023-05-19T00:22:15.862Z,101149.47
2023-05-19T00:24:43.279Z,101152.06
2023-05-19T00:27:11.071Z,101137.94
2023-05-19T00:29:38.480Z,101127.91
2023-05-19T00:32:06.345Z,101125.34
2023-05-19T00:34:34.184Z,101127.47
2023-05-19T00:37:01.596Z,101134.81
2023-05-19T00:39:29.006Z,101141.31
2023-05-19T00:41:56.505Z,101147.25
2023-05-19T00:44:23.919Z,101143.88
2023-05-19T00:46:51.438Z,101132.81
2023-05-19T00:49:18.915Z,101128.75
2023-05-19T00:51:46.496Z,101126.41
2023-05-19T00:54:13.956Z,101131.28
2023-05-19T00:56:41.694Z,101134.84
2023-05-19T00:59:09.100Z,101137.00
2023-05-19T01:01:37.236Z,101139.09
2023-05-19T01:04:05.519Z,101139.34
2023-05-19T01:06:33.283Z,101141.13
2023-05-19T01:09:00.651Z,101140.59
2023-05-19T01:11:28.701Z,101144.41
2023-05-19T01:13:56.383Z,101145.31
2023-05-19T01:16:37.498Z,101142.09
2023-05-19T01:19:19.993Z,101149.09
2023-05-19T01:22:13.205Z,101147.00
2023-05-19T01:24:50.972Z,101141.41
2023-05-19T01:27:37.885Z,101150.63
2023-05-19T01:30:26.393Z,101147.25
2023-05-19T01:32:59.108Z,101136.53
2023-05-19T01:35:27.712Z,101131.75
2023-05-19T01:37:58.069Z,101130.66
2023-05-19T01:40:27.568Z,101139.63
2023-05-19T01:42:58.035Z,101142.28
2023-05-19T01:45:31.679Z,101130.41
2023-05-19T01:48:01.420Z,101131.75
2023-05-19T01:50:29.329Z,101131.19
2023-05-19T01:53:01.032Z,101131.13
2023-05-19T01:55:28.570Z,101130.75
2023-05-19T01:58:14.804Z,101132.28
2023-05-19T02:00:53.143Z,101130.06
2023-05-19T02:03:32.852Z,101127.66
2023-05-19T02:06:06.248Z,101123.78
2023-05-19T02:08:51.310Z,101124.47
2023-05-19T02:11:31.426Z,101127.59
2023-05-19T02:14:02.811Z,101130.75
2023-05-19T02:16:30.821Z,101120.41
2023-05-19T02:18:59.580Z,101125.78
2023-05-19T02:21:27.182Z,101125.25
2023-05-19T02:23:55.701Z,101128.53
2023-05-19T02:26:23.084Z,101133.25
2023-05-19T02:28:50.684Z,101126.84
2023-05-19T02:31:18.601Z,101132.44
2023-05-19T02:33:46.288Z,101119.66
2023-05-19T02:36:14.576Z,101127.22
2023-05-19T02:38:41.999Z,101119.13
2023-05-19T02:41:09.309Z,101122.63
2023-05-19T02:43:37.001Z,101133.34
2023-05-19T02:46:04.465Z,101128.91
2023-05-19T02:48:31.858Z,101120.13
2023-05-19T02:51:00.265Z,101126.06
2023-05-19T02:53:27.696Z,101122.91
2023-05-19T02:55:55.055Z,101124.81
2023-05-19T02:58:23.049Z,101122.41
2023-05-19T03:00:51.498Z,101116.91
2023-05-19T03:03:18.997Z,101115.97
2023-05-19T03:05:47.361Z,101119.13
2023-05-19T03:08:14.942Z,101115.19
2023-05-19T03:10:42.321Z,101119.72
2023-05-19T03:13:09.760Z,101122.13
2023-05-19T03:15:37.246Z,101114.63
2023-05-19T03:18:05.346Z,101119.13
2023-05-19T03:20:33.406Z,101115.94
2023-05-19T03:23:01.331Z,101119.84
2023-05-19T03:25:30.182Z,101112.28
2023-05-19T03:27:57.699Z,101120.72
2023-05-19T03:30:25.316Z,101109.91
2023-05-19T03:33:18.251Z,101115.19
2023-05-19T03:35:46.543Z,101118.63
2023-05-19T03:38:14.892Z,101117.25
2023-05-19T03:40:49.501Z,101123.00
2023-05-19T03:43:17.218Z,101121.44
2023-05-19T03:45:49.917Z,101122.47
2023-05-19T03:48:37.195Z,101114.91
2023-05-19T03:51:28.660Z,101122.13
2023-05-19T03:54:00.503Z,101118.00
2023-05-19T03:56:28.934Z,101124.13
2023-05-19T03:58:56.599Z,101126.31
2023-05-19T04:01:24.274Z,101128.91
2023-05-19T04:03:51.735Z,101128.53
2023-05-19T04:06:19.198Z,101135.34
2023-05-19T04:08:46.611Z,101124.34
2023-05-19T04:11:14.215Z,101137.75
2023-05-19T04:13:41.714Z,101138.94
2023-05-19T04:16:09.233Z,101141.63
2023-05-19T04:18:36.832Z,101129.38
2023-05-19T04:21:05.176Z,101135.00
2023-05-19T04:23:32.620Z,101143.88
2023-05-19T04:26:03.777Z,101140.44
2023-05-19T04:28:31.227Z,101137.66
2023-05-19T04:30:58.891Z,101143.38
2023-05-19T04:33:26.625Z,101141.94
2023-05-19T04:35:55.166Z,101144.06
2023-05-19T04:38:22.595Z,101133.09
2023-05-19T04:40:52.044Z,101140.41
2023-05-19T04:43:19.497Z,101134.47
2023-05-19T04:45:50.182Z,101142.59
2023-05-19T04:48:18.190Z,101145.81
2023-05-19T04:50:45.722Z,101146.88
2023-05-19T04:53:13.162Z,101141.22
2023-05-19T04:55:40.801Z,101144.88
2023-05-19T04:58:08.253Z,101145.13
2023-05-19T05:00:37.290Z,101148.38
2023-05-19T05:03:08.375Z,101145.94
2023-05-19T05:05:36.807Z,101152.25
2023-05-19T05:08:04.462Z,101145.63
2023-05-19T05:10:39.706Z,101141.56
2023-05-19T05:13:07.946Z,101144.94
2023-05-19T05:15:37.074Z,101148.59
2023-05-19T05:18:05.071Z,101143.34
2023-05-19T05:20:33.272Z,101152.28
2023-05-19T05:23:01.239Z,101151.59
2023-05-19T05:25:29.259Z,101150.09
2023-05-19T05:27:58.989Z,101151.25
2023-05-19T05:30:26.478Z,101146.28
2023-05-19T05:32:54.310Z,101145.31
2023-05-19T05:35:42.010Z,101142.13
2023-05-19T05:38:11.804Z,101141.22
2023-05-19T05:40:40.182Z,101148.16
2023-05-19T05:43:08.700Z,101151.81
2023-05-19T05:45:42.152Z,101140.28
2023-05-19T05:48:10.115Z,101146.81
2023-05-19T05:50:37.961Z,101144.50
2023-05-19T05:53:07.276Z,101145.75
2023-05-19T05:55:37.340Z,101151.69
2023-05-19T05:58:06.513Z,101157.72
2023-05-19T06:00:37.068Z,101158.25
2023-05-19T06:03:05.831Z,101152.56
2023-05-19T06:05:33.554Z,101150.19
2023-05-19T06:08:01.289Z,101151.59
2023-05-19T06:10:29.024Z,101160.59
2023-05-19T06:12:58.748Z,101156.66
2023-05-19T06:15:26.979Z,101163.69
2023-05-19T06:18:04.865Z,101157.47
2023-05-19T06:20:32.630Z,101161.22
2023-05-19T06:23:01.404Z,101166.44
2023-05-19T06:25:29.756Z,101157.44
2023-05-19T06:27:58.142Z,101159.31
2023-05-19T06:30:26.049Z,101157.44
2023-05-19T06:33:04.775Z,101164.28
2023-05-19T06:35:33.016Z,101166.16
2023-05-19T06:38:00.647Z,101167.91
2023-05-19T06:40:28.434Z,101169.88
2023-05-19T06:42:55.993Z,101176.19
2023-05-19T06:45:35.267Z,101170.94
2023-05-19T06:48:04.605Z,101177.34
2023-05-19T06:50:32.316Z,101181.06
2023-05-19T06:52:59.953Z,101187.19
2023-05-19T06:55:27.692Z,101181.00
2023-05-19T06:57:55.304Z,101184.25
2023-05-19T07:00:23.955Z,101191.25
2023-05-19T07:02:53.531Z,101188.88
2023-05-19T07:05:21.691Z,101187.97
2023-05-19T07:07:53.565Z,101195.72
2023-05-19T07:10:25.000Z,101184.00
2023-05-19T07:12:53.541Z,101185.59
2023-05-19T07:15:23.962Z,101191.19
2023-05-19T07:17:51.431Z,101177.78
2023-05-19T07:20:20.111Z,101183.28
2023-05-19T07:22:47.737Z,101180.72
2023-05-19T07:25:15.943Z,101181.41
2023-05-19T07:27:45.887Z,101185.41
2023-05-19T07:30:13.643Z,101185.53
2023-05-19T07:32:44.041Z,101176.06
2023-05-19T07:35:11.682Z,101177.41
2023-05-19T07:37:39.294Z,101183.25
2023-05-19T07:40:08.021Z,101179.16
2023-05-19T07:42:35.528Z,101186.03
2023-05-19T07:45:03.604Z,101177.19
2023-05-19T07:47:33.793Z,101179.59
2023-05-19T07:50:01.253Z,101188.22
2023-05-19T07:52:28.720Z,101192.84
2023-05-19T07:54:56.322Z,101187.34
2023-05-19T07:57:23.818Z,101190.69
2023-05-19T07:59:51.406Z,101176.47
2023-05-19T08:02:18.890Z,101191.16
2023-05-19T08:04:46.316Z,101193.63
2023-05-19T08:07:13.841Z,101191.31
2023-05-19T08:09:41.178Z,101189.19
2023-05-19T08:12:08.579Z,101179.06
2023-05-19T08:14:36.371Z,101196.56
2023-05-19T08:17:03.872Z,101189.63
2023-05-19T08:19:31.308Z,101190.97
2023-05-19T08:22:01.152Z,101188.78
2023-05-19T08:24:32.841Z,101188.28
2023-05-19T08:27:00.616Z,101187.19
2023-05-19T08:29:27.994Z,101191.34
2023-05-19T08:31:55.676Z,101187.56
2023-05-19T08:34:23.191Z,101196.00
2023-05-19T08:36:50.684Z,101193.97
2023-05-19T08:39:26.237Z,101194.47
2023-05-19T08:41:54.585Z,101197.94
2023-05-19T08:44:22.868Z,101195.13
2023-05-19T08:46:54.380Z,101194.09
2023-05-19T08:49:31.915Z,101207.31
2023-05-19T08:52:32.878Z,101197.97
2023-05-19T08:55:13.133Z,101199.19
2023-05-19T08:57:41.598Z,101196.50
2023-05-19T09:00:12.121Z,101200.28
2023-05-19T09:02:50.674Z,101200.13
2023-05-19T09:05:28.295Z,101208.53
2023-05-19T09:07:56.083Z,101206.88
2023-05-19T09:10:23.526Z,101207.75
2023-05-19T09:12:51.538Z,101213.28
2023-05-19T09:15:19.479Z,101203.38
2023-05-19T09:17:50.398Z,101210.28
2023-05-19T09:20:17.932Z,101212.59
2023-05-19T09:22:47.547Z,101204.47
2023-05-19T09:25:27.662Z,101213.59
2023-05-19T09:27:55.332Z,101204.41
2023-05-19T09:30:23.980Z,101214.63
2023-05-19T09:32:52.024Z,101204.25
2023-05-19T09:35:21.587Z,101206.00
2023-05-19T09:37:50.159Z,101211.38
2023-05-19T09:40:17.628Z,101214.34
2023-05-19T09:42:45.066Z,101215.66
2023-05-19T09:45:12.575Z,101213.03
2023-05-19T09:47:49.951Z,101219.19
2023-05-19T09:50:17.976Z,101216.25
2023-05-19T09:52:53.374Z,101216.38
2023-05-19T09:55:29.389Z,101201.69
2023-05-19T09:57:56.834Z,101209.66
2023-05-19T10:00:24.523Z,101200.00
2023-05-19T10:02:52.825Z,101202.81
2023-05-19T10:05:20.944Z,101212.06
2023-05-19T10:07:52.902Z,101214.34
2023-05-19T10:10:22.185Z,101208.97
2023-05-19T10:12:50.301Z,101203.78
2023-05-19T10:15:20.701Z,101203.91
2023-05-19T10:17:50.624Z,101211.91
2023-05-19T10:20:18.061Z,101200.53
2023-05-19T10:22:46.588Z,101198.00
2023-05-19T10:25:15.396Z,101204.50
2023-05-19T10:27:48.457Z,101204.81
2023-05-19T10:30:32.855Z,101196.28
2023-05-19T10:33:01.847Z,101207.22
2023-05-19T10:35:53.313Z,101205.38
2023-05-19T10:38:45.904Z,101199.16
2023-05-19T10:41:23.487Z,101200.59
2023-05-19T10:44:31.326Z,101196.97
2023-05-19T10:46:58.859Z,101199.16
2023-05-19T10:49:26.492Z,101186.91
2023-05-19T10:51:56.864Z,101199.00
2023-05-19T10:54:43.457Z,101185.84
2023-05-19T10:57:16.295Z,101190.06
2023-05-19T10:59:44.786Z,101178.47
2023-05-19T11:02:42.327Z,101188.41
2023-05-19T11:05:18.517Z,101186.28
2023-05-19T11:07:56.409Z,101187.81
2023-05-19T11:10:24.480Z,101182.91
2023-05-19T11:12:52.226Z,101183.31
2023-05-19T11:15:25.985Z,101177.66
2023-05-19T11:17:54.202Z,101179.97
2023-05-19T11:20:23.583Z,101177.00
2023-05-19T11:23:11.158Z,101179.63
2023-05-19T11:25:51.034Z,101169.00
2023-05-19T11:28:20.198Z,101177.44
2023-05-19T11:30:52.449Z,101176.13
2023-05-19T11:33:21.528Z,101169.25
2023-05-19T11:35:51.191Z,101167.44
2023-05-19T11:38:19.535Z,101152.13
2023-05-19T11:40:49.678Z,101173.69
2023-05-19T11:43:17.234Z,101161.63
2023-05-19T11:45:45.857Z,101167.81
2023-05-19T11:48:13.708Z,101167.97
2023-05-19T11:50:42.419Z,101156.53
2023-05-19T11:53:16.621Z,101167.53
2023-05-19T11:55:48.066Z,101159.69
2023-05-19T11:58:16.344Z,101166.94
2023-05-19T12:00:46.368Z,101169.75
2023-05-19T12:03:14.086Z,101164.47
2023-05-19T12:05:48.389Z,101159.41
2023-05-19T12:08:18.388Z,101161.94
2023-05-19T12:10:50.704Z,101167.44
2023-05-19T12:13:19.737Z,101159.09
2023-05-19T12:15:47.336Z,101155.38
2023-05-19T12:18:14.865Z,101160.69
2023-05-19T12:20:42.404Z,101158.97
2023-05-19T12:23:12.617Z,101164.09
2023-05-19T12:25:40.112Z,101153.16
2023-05-19T12:28:07.846Z,101154.88
2023-05-19T12:30:35.777Z,101153.00
2023-05-19T12:33:03.595Z,101146.31
2023-05-19T12:35:35.942Z,101151.66
2023-05-19T12:38:06.754Z,101157.22
2023-05-19T12:40:35.761Z,101152.50
2023-05-19T12:43:04.462Z,101153.97
2023-05-19T12:45:40.079Z,101154.53
2023-05-19T12:48:16.645Z,101145.59
2023-05-19T12:50:47.566Z,101151.09
2023-05-19T12:53:15.545Z,101150.50
2023-05-19T12:55:45.424Z,101150.56
2023-05-19T12:58:13.618Z,101147.06
2023-05-19T13:00:43.995Z,101140.69
2023-05-19T13:03:19.784Z,101146.25
2023-05-19T13:05:51.101Z,101140.38
2023-05-19T13:08:21.692Z,101150.41
2023-05-19T13:10:50.236Z,101138.59
2023-05-19T13:13:17.832Z,101141.41
2023-05-19T13:15:48.724Z,101142.56
2023-05-19T13:18:17.320Z,101141.94
2023-05-19T13:20:45.565Z,101142.34
2023-05-19T13:23:14.410Z,101139.19
2023-05-19T13:25:42.684Z,101139.69
2023-05-19T13:28:10.542Z,101148.31
2023-05-19T13:30:40.950Z,101139.72
2023-05-19T13:33:08.476Z,101149.31
2023-05-19T13:35:39.085Z,101143.72
2023-05-19T13:38:09.708Z,101145.78
2023-05-19T13:40:38.069Z,101149.97
2023-05-19T13:43:06.252Z,101147.34
2023-05-19T13:45:33.995Z,101149.16
2023-05-19T13:48:01.671Z,101153.22
2023-05-19T13:50:29.233Z,101149.69
2023-05-19T13:52:57.143Z,101153.72
2023-05-19T13:55:26.315Z,101136.75
2023-05-19T13:57:53.710Z,101142.00
2023-05-19T14:00:21.496Z,101148.03
2023-05-19T14:02:49.096Z,101155.06
2023-05-19T14:05:18.264Z,101155.78
2023-05-19T14:07:46.335Z,101158.16
2023-05-19T14:10:13.846Z,101159.94
2023-05-19T14:13:02.431Z,101157.53
2023-05-19T14:15:29.090Z,101154.72
2023-05-19T14:17:56.569Z,101155.03
2023-05-19T14:20:23.973Z,101154.28
2023-05-19T14:22:51.306Z,101158.34
2023-05-19T14:25:18.880Z,101158.50
2023-05-19T14:27:46.249Z,101156.94
2023-05-19T14:30:15.037Z,101152.44
2023-05-19T14:32:42.478Z,101150.81
2023-05-19T14:35:09.999Z,101154.97
2023-05-19T14:37:37.459Z,101160.34
2023-05-19T14:40:05.361Z,101154.31
2023-05-19T14:42:32.892Z,101149.44
2023-05-19T14:45:00.327Z,101156.72
2023-05-19T14:47:27.708Z,101159.38
2023-05-19T14:49:55.106Z,101159.31
2023-05-19T14:52:22.942Z,101162.31
2023-05-19T14:54:50.420Z,101155.91
2023-05-19T14:57:17.905Z,101156.78
2023-05-19T14:59:45.311Z,101157.28
2023-05-19T15:02:12.749Z,101155.41
2023-05-19T15:04:40.206Z,101153.03
2023-05-19T15:07:11.110Z,101151.75
2023-05-19T15:09:38.828Z,101157.06
2023-05-19T15:12:06.339Z,101153.28
2023-05-19T15:14:33.776Z,101157.47
2023-05-19T15:17:01.392Z,101147.47
2023-05-19T15:19:29.063Z,101151.91
2023-05-19T15:21:56.624Z,101145.25
2023-05-19T15:24:24.274Z,101146.63
2023-05-19T15:26:52.114Z,101142.28
2023-05-19T15:29:19.801Z,101145.94
2023-05-19T15:31:51.737Z,101138.50
2023-05-19T15:34:22.033Z,101138.75
2023-05-19T15:36:49.423Z,101136.22
2023-05-19T15:39:16.853Z,101139.91
2023-05-19T15:41:44.907Z,101135.81
2023-05-19T15:44:14.683Z,101137.38
2023-05-19T15:46:42.223Z,101133.63
2023-05-19T15:49:09.664Z,101134.06
2023-05-19T15:51:40.317Z,101126.31
2023-05-19T15:54:07.791Z,101124.75
2023-05-19T15:56:35.285Z,101125.47
2023-05-19T15:59:02.694Z,101125.47
2023-05-19T16:01:30.446Z,101123.22
2023-05-19T16:03:57.966Z,101116.69
2023-05-19T16:06:27.538Z,101112.69
2023-05-19T16:08:54.971Z,101109.78
2023-05-19T16:11:23.457Z,101106.88
2023-05-19T16:13:50.831Z,101105.34
2023-05-19T16:16:18.820Z,101102.72
2023-05-19T16:18:46.367Z,101098.84
2023-05-19T16:21:13.912Z,101098.00
2023-05-19T16:23:41.242Z,101099.81
2023-05-19T16:26:10.973Z,101093.66
2023-05-19T16:28:38.405Z,101096.31
2023-05-19T16:31:05.904Z,101091.25
2023-05-19T16:33:33.377Z,101089.50
2023-05-19T16:36:00.847Z,101086.91
2023-05-19T16:38:28.363Z,101088.81
2023-05-19T16:40:55.800Z,101083.91
2023-05-19T16:43:23.185Z,101078.41
2023-05-19T16:45:50.707Z,101076.00
2023-05-19T16:48:18.073Z,101071.44
2023-05-19T16:50:48.798Z,101066.41
2023-05-19T16:53:16.164Z,101064.03
2023-05-19T16:55:43.607Z,101065.44
2023-05-19T16:58:13.859Z,101059.03
2023-05-19T17:00:41.231Z,101055.75
2023-05-19T17:03:08.623Z,101057.28
2023-05-19T17:05:38.265Z,101056.38
2023-05-19T17:08:06.086Z,101056.38
2023-05-19T17:10:34.657Z,101055.56
2023-05-19T17:13:02.190Z,101066.66
2023-05-19T17:15:30.333Z,101074.44
2023-05-19T17:17:57.786Z,101067.22
2023-05-19T17:20:25.269Z,101059.34
2023-05-19T17:22:52.794Z,101063.03
2023-05-19T17:25:20.215Z,101066.25
2023-05-19T17:27:47.581Z,101063.28
2023-05-19T17:30:15.038Z,101057.34
2023-05-19T17:32:42.413Z,101061.94
2023-05-19T17:35:10.270Z,101062.19
2023-05-19T17:37:37.686Z,101066.03
2023-05-19T17:40:05.638Z,101072.44
2023-05-19T17:42:33.003Z,101062.38
2023-05-19T17:45:00.536Z,101061.16
2023-05-19T17:47:28.012Z,101068.56
2023-05-19T17:49:55.553Z,101065.25
2023-05-19T17:52:23.945Z,101073.84
2023-05-19T17:54:51.736Z,101070.41
2023-05-19T17:57:21.777Z,101070.50
2023-05-19T17:59:49.399Z,101071.53
2023-05-19T18:02:18.612Z,101079.44
2023-05-19T18:04:46.452Z,101082.88
2023-05-19T18:07:14.209Z,101075.78
2023-05-19T18:09:45.574Z,101073.03
2023-05-19T18:12:13.007Z,101080.47
2023-05-19T18:14:40.574Z,101072.91
2023-05-19T18:17:08.062Z,101094.06
2023-05-19T18:19:35.557Z,101088.94
2023-05-19T18:22:03.563Z,101087.44
2023-05-19T18:24:30.913Z,101084.94
2023-05-19T18:26:58.463Z,101077.63
2023-05-19T18:29:25.900Z,101082.50
2023-05-19T18:31:53.404Z,101084.81
2023-05-19T18:34:20.845Z,101085.25
2023-05-19T18:36:48.280Z,101096.22
2023-05-19T18:39:15.640Z,101092.69
2023-05-19T18:41:43.078Z,101098.28
2023-05-19T18:44:11.504Z,101102.50
2023-05-19T18:46:41.624Z,101097.59
2023-05-19T18:49:11.649Z,101097.13
2023-05-19T18:51:39.462Z,101094.88
2023-05-19T18:54:07.284Z,101084.94
2023-05-19T18:56:35.493Z,101090.72
2023-05-19T18:59:02.935Z,101095.78
2023-05-19T19:01:30.419Z,101101.16
2023-05-19T19:03:57.902Z,101091.66
2023-05-19T19:06:25.394Z,101103.66
2023-05-19T19:08:53.940Z,101107.19
2023-05-19T19:11:21.373Z,101103.22
2023-05-19T19:13:51.359Z,101108.47
2023-05-19T19:16:18.993Z,101110.06
2023-05-19T19:18:46.633Z,101105.94
2023-05-19T19:21:13.998Z,101108.22
2023-05-19T19:23:41.468Z,101102.50
2023-05-19T19:26:09.607Z,101108.00
2023-05-19T19:28:37.154Z,101110.28
2023-05-19T19:31:04.625Z,101099.06
2023-05-19T19:33:32.209Z,101111.19
2023-05-19T19:35:59.663Z,101114.63
2023-05-19T19:38:27.098Z,101113.03
2023-05-19T19:40:57.753Z,101104.13
2023-05-19T19:43:25.279Z,101113.22
2023-05-19T19:46:01.243Z,101117.25
2023-05-19T19:48:29.053Z,101122.28
2023-05-19T19:50:57.777Z,101119.31
2023-05-19T19:53:25.451Z,101120.78
2023-05-19T19:56:00.162Z,101119.53
2023-05-19T19:58:28.508Z,101118.28
2023-05-19T20:01:01.870Z,101120.22
2023-05-19T20:03:29.567Z,101125.28
2023-05-19T20:05:57.174Z,101129.84
2023-05-19T20:08:25.453Z,101123.22
2023-05-19T20:10:53.416Z,101117.13
2023-05-19T20:13:20.948Z,101114.63
2023-05-19T20:15:48.646Z,101122.41
2023-05-19T20:18:16.159Z,101124.00
2023-05-19T20:20:43.687Z,101119.06
2023-05-19T20:23:12.582Z,101117.13
2023-05-19T20:26:02.411Z,101118.47
2023-05-19T20:28:32.172Z,101113.59
2023-05-19T20:30:59.662Z,101109.25
2023-05-19T20:33:27.089Z,101117.91
2023-05-19T20:35:54.471Z,101105.91
2023-05-19T20:38:21.891Z,101109.91
2023-05-19T20:40:49.281Z,101116.88
2023-05-19T20:43:16.722Z,101117.09
2023-05-19T20:45:44.450Z,101115.66
2023-05-19T20:48:11.943Z,101106.88
2023-05-19T20:50:42.454Z,101108.22
2023-05-19T20:53:09.917Z,101110.06
2023-05-19T20:55:38.890Z,101108.09
2023-05-19T20:58:06.523Z,101107.19
2023-05-19T21:00:34.082Z,101094.50
2023-05-19T21:03:01.844Z,101101.34
2023-05-19T21:05:29.398Z,101095.06
2023-05-19T21:07:56.887Z,101098.50
2023-05-19T21:10:24.355Z,101101.47
2023-05-19T21:12:51.818Z,101099.31
2023-05-19T21:15:19.259Z,101093.13
2023-05-19T21:17:46.900Z,101104.44
2023-05-19T21:20:14.355Z,101098.06
2023-05-19T21:22:41.809Z,101099.66
2023-05-19T21:25:09.362Z,101097.72
2023-05-19T21:27:36.762Z,101096.44
2023-05-19T21:30:04.382Z,101083.41
2023-05-19T21:32:32.489Z,101090.25
2023-05-19T21:35:00.292Z,101084.53
2023-05-19T21:37:27.710Z,101086.03
2023-05-19T21:39:55.148Z,101090.06
2023-05-19T21:42:22.586Z,101084.69
2023-05-19T21:44:50.019Z,101090.06
2023-05-19T21:47:17.435Z,101084.03
2023-05-19T21:49:44.862Z,101094.00
2023-05-19T21:52:12.274Z,101092.72
2023-05-19T21:54:39.742Z,101085.63
2023-05-19T21:57:07.266Z,101089.06
2023-05-19T21:59:34.637Z,101092.28
2023-05-19T22:02:02.090Z,101095.34
2023-05-19T22:04:31.568Z,101095.09
2023-05-19T22:06:59.239Z,101094.31
2023-05-19T22:09:27.007Z,101104.38
2023-05-19T22:11:54.401Z,101091.47
2023-05-19T22:14:21.763Z,101103.44
2023-05-19T22:16:49.356Z,101101.75
2023-05-19T22:19:35.522Z,101098.31
2023-05-19T22:22:13.232Z,101094.00
2023-05-19T22:24:41.993Z,101099.69
2023-05-19T22:27:09.406Z,101098.75
2023-05-19T22:29:40.428Z,101091.09
2023-05-19T22:32:11.900Z,101092.16
2023-05-19T22:34:39.949Z,101087.28
2023-05-19T22:37:07.451Z,101086.84
2023-05-19T22:39:34.807Z,101090.53
2023-05-19T22:42:02.679Z,101082.47
2023-05-19T22:44:32.815Z,101082.16
2023-05-19T22:47:00.218Z,101082.69
2023-05-19T22:49:29.410Z,101080.50
2023-05-19T22:51:56.864Z,101079.72
2023-05-19T22:54:26.300Z,101081.28
2023-05-19T22:56:53.740Z,101078.81
2023-05-19T22:59:21.598Z,101073.81
2023-05-19T23:01:49.080Z,101068.16
2023-05-19T23:04:16.580Z,101056.91
2023-05-19T23:06:44.199Z,101062.47
2023-05-19T23:09:11.855Z,101055.03
2023-05-19T23:11:39.208Z,101054.44
2023-05-19T23:14:06.622Z,101059.22
2023-05-19T23:16:34.066Z,101054.44
2023-05-19T23:19:01.530Z,101054.25
2023-05-19T23:21:31.542Z,101041.56
2023-05-19T23:23:59.519Z,101042.38
2023-05-19T23:26:26.987Z,101035.38
2023-05-19T23:28:54.377Z,101032.56
2023-05-19T23:31:21.809Z,101035.31
2023-05-19T23:33:49.245Z,101030.44
2023-05-19T23:36:17.733Z,101026.63
2023-05-19T23:38:45.104Z,101025.47
2023-05-19T23:41:12.832Z,101031.31
2023-05-19T23:43:40.426Z,101029.56
2023-05-19T23:46:08.041Z,101030.97
2023-05-19T23:48:36.688Z,101029.38
2023-05-19T23:51:04.273Z,101026.19
2023-05-19T23:53:31.654Z,101029.09
2023-05-19T23:55:59.096Z,101011.38
2023-05-19T23:58:26.424Z,101016.25
